createdAt,value
2023-03-22T00:00:27.431Z,49.19
2023-03-22T00:02:54.601Z,49.35
2023-03-22T00:05:21.709Z,49.29
2023-03-22T00:07:54.201Z,49.65
2023-03-22T00:10:21.397Z,49.44
2023-03-22T00:12:48.491Z,49.22
2023-03-22T00:15:15.623Z,49.25
2023-03-22T00:17:44.673Z,49.27
2023-03-22T00:20:11.825Z,49.54
2023-03-22T00:25:25.906Z,49.49
2023-03-22T00:27:53.205Z,49.66
2023-03-22T00:30:20.573Z,50.19
2023-03-22T00:32:47.669Z,50.35
2023-03-22T00:35:14.738Z,50.25
2023-03-22T00:37:41.833Z,50.31
2023-03-22T00:40:09.043Z,50.49
2023-03-22T00:45:23.306Z,50.28
2023-03-22T00:47:50.579Z,50.14
2023-03-22T00:50:17.760Z,49.94
2023-03-22T00:52:44.828Z,50.12
2023-03-22T00:55:11.908Z,50.30
2023-03-22T00:57:39.037Z,50.08
2023-03-22T01:00:13.652Z,49.99
2023-03-22T01:02:40.754Z,50.34
2023-03-22T01:05:07.897Z,49.95
2023-03-22T01:10:25.406Z,50.16
2023-03-22T01:12:52.512Z,50.00
2023-03-22T01:15:19.662Z,50.04
2023-03-22T01:17:46.730Z,49.93
2023-03-22T01:20:13.858Z,50.09
2023-03-22T01:22:41.165Z,49.85
2023-03-22T01:25:08.234Z,49.90
2023-03-22T01:30:22.558Z,49.85
2023-03-22T01:32:49.624Z,50.16
2023-03-22T01:35:16.697Z,49.81
2023-03-22T01:37:43.793Z,49.75
2023-03-22T01:40:10.858Z,49.89
2023-03-22T01:45:24.945Z,50.04
2023-03-22T01:47:52.121Z,49.80
2023-03-22T01:50:19.259Z,49.92
2023-03-22T01:55:33.386Z,49.95
2023-03-22T01:58:00.918Z,49.78
2023-03-22T02:00:28.125Z,49.78
2023-03-22T02:02:55.390Z,49.76
2023-03-22T02:05:22.549Z,49.86
2023-03-22T02:07:49.640Z,49.68
2023-03-22T02:10:16.719Z,49.93
2023-03-22T02:12:43.828Z,49.84
2023-03-22T02:15:10.925Z,49.77
2023-03-22T02:20:25.053Z,49.70
2023-03-22T02:22:53.221Z,49.99
2023-03-22T02:25:20.360Z,50.03
2023-03-22T02:27:47.593Z,50.08
2023-03-22T02:30:14.673Z,49.93
2023-03-22T02:32:41.796Z,49.81
2023-03-22T02:35:08.853Z,49.92
2023-03-22T02:40:23.017Z,49.76
2023-03-22T02:42:50.092Z,49.75
2023-03-22T02:45:17.212Z,49.80
2023-03-22T02:47:44.816Z,49.64
2023-03-22T02:50:11.935Z,49.85
2023-03-22T02:52:41.965Z,49.74
2023-03-22T02:55:09.190Z,49.72
2023-03-22T03:00:23.263Z,49.82
2023-03-22T03:02:50.360Z,49.81
2023-03-22T03:05:17.431Z,49.72
2023-03-22T03:07:44.550Z,49.80
2023-03-22T03:10:11.755Z,49.73
2023-03-22T03:15:26.039Z,49.93
2023-03-22T03:17:53.113Z,49.98
2023-03-22T03:20:21.896Z,50.02
2023-03-22T03:22:48.996Z,49.61
2023-03-22T03:25:18.278Z,49.70
2023-03-22T03:27:46.220Z,49.72
2023-03-22T03:30:13.307Z,49.74
2023-03-22T03:32:42.041Z,49.60
2023-03-22T03:35:09.490Z,49.75
2023-03-22T03:40:23.562Z,49.63
2023-03-22T03:42:50.675Z,49.61
2023-03-22T03:48:04.796Z,49.78
2023-03-22T03:50:32.057Z,49.63
2023-03-22T03:52:59.190Z,49.86
2023-03-22T03:55:26.259Z,49.80
2023-03-22T03:57:53.341Z,49.86
2023-03-22T04:00:20.539Z,49.64
2023-03-22T04:02:47.615Z,49.85
2023-03-22T04:05:14.760Z,49.82
2023-03-22T04:07:41.916Z,49.66
2023-03-22T04:10:09.064Z,49.51
2023-03-22T04:15:24.148Z,49.84
2023-03-22T04:17:51.809Z,49.64
2023-03-22T04:20:19.605Z,49.58
2023-03-22T04:22:48.353Z,49.65
2023-03-22T04:25:17.989Z,49.68
2023-03-22T04:27:45.198Z,49.88
2023-03-22T04:30:12.608Z,49.62
2023-03-22T04:32:39.722Z,49.69
2023-03-22T04:35:06.789Z,49.91
2023-03-22T04:37:33.877Z,49.71
2023-03-22T04:40:00.994Z,49.71
2023-03-22T04:42:28.184Z,49.79
2023-03-22T04:44:55.279Z,49.85
2023-03-22T04:47:22.358Z,49.56
2023-03-22T04:49:49.454Z,49.78
2023-03-22T04:52:16.526Z,49.65
2023-03-22T04:54:43.620Z,49.95
2023-03-22T04:57:10.693Z,49.49
2023-03-22T05:02:24.873Z,49.73
2023-03-22T05:04:51.982Z,49.67
2023-03-22T05:07:19.068Z,49.52
2023-03-22T05:09:46.142Z,49.52
2023-03-22T05:12:13.201Z,49.51
2023-03-22T05:14:40.298Z,49.56
2023-03-22T05:17:07.367Z,49.47
2023-03-22T05:22:22.470Z,49.73
2023-03-22T05:24:49.566Z,49.74
2023-03-22T05:27:16.637Z,49.74
2023-03-22T05:29:45.015Z,49.70
2023-03-22T05:32:12.239Z,49.76
2023-03-22T05:34:41.859Z,49.53
2023-03-22T05:37:09.031Z,49.43
2023-03-22T05:42:23.681Z,49.48
2023-03-22T05:44:51.353Z,49.36
2023-03-22T05:47:18.426Z,49.68
2023-03-22T05:49:45.675Z,49.48
2023-03-22T05:52:13.048Z,49.36
2023-03-22T05:54:40.158Z,49.49
2023-03-22T05:57:07.299Z,49.49
2023-03-22T06:02:21.519Z,49.40
2023-03-22T06:04:49.689Z,49.49
2023-03-22T06:07:16.777Z,49.49
2023-03-22T06:12:30.851Z,49.51
2023-03-22T06:14:57.942Z,49.70
2023-03-22T06:17:25.585Z,49.32
2023-03-22T06:19:53.304Z,49.29
2023-03-22T06:22:20.534Z,49.30
2023-03-22T06:24:47.614Z,49.58
2023-03-22T06:27:14.693Z,49.41
2023-03-22T06:29:41.761Z,49.24
2023-03-22T06:32:08.911Z,49.34
2023-03-22T06:37:23.018Z,49.21
2023-03-22T06:39:51.368Z,49.08
2023-03-22T06:42:18.496Z,49.28
2023-03-22T06:44:45.689Z,49.23
2023-03-22T06:47:12.764Z,49.29
2023-03-22T06:49:39.854Z,49.42
2023-03-22T06:52:06.944Z,49.05
2023-03-22T06:54:34.207Z,49.22
2023-03-22T06:57:01.343Z,49.34
2023-03-22T06:59:28.433Z,49.47
2023-03-22T07:01:55.537Z,49.48
2023-03-22T07:04:22.641Z,49.32
2023-03-22T07:06:49.730Z,49.19
2023-03-22T07:09:16.900Z,49.41
2023-03-22T07:11:43.992Z,49.44
2023-03-22T07:14:11.091Z,49.41
2023-03-22T07:19:25.785Z,49.08
2023-03-22T07:21:52.908Z,49.31
2023-03-22T07:24:19.972Z,49.39
2023-03-22T07:26:47.059Z,49.57
2023-03-22T07:29:14.154Z,49.35
2023-03-22T07:31:42.697Z,49.38
2023-03-22T07:34:09.768Z,49.69
2023-03-22T07:39:25.596Z,49.53
2023-03-22T07:41:52.680Z,49.24
2023-03-22T07:44:19.758Z,49.43
2023-03-22T07:46:46.966Z,49.35
2023-03-22T07:49:14.062Z,48.90
2023-03-22T07:51:41.139Z,48.91
2023-03-22T07:54:08.219Z,48.98
2023-03-22T07:56:35.336Z,48.90
2023-03-22T07:59:02.478Z,48.73
2023-03-22T08:01:29.643Z,48.56
2023-03-22T08:03:56.705Z,48.79
2023-03-22T08:06:23.789Z,48.56
2023-03-22T08:08:51.056Z,48.47
2023-03-22T08:11:18.135Z,48.49
2023-03-22T08:13:45.234Z,48.65
2023-03-22T08:16:12.339Z,48.35
2023-03-22T08:18:39.436Z,48.90
2023-03-22T08:21:06.504Z,48.51
2023-03-22T08:23:41.291Z,48.65
2023-03-22T08:26:08.923Z,48.28
2023-03-22T08:28:36.302Z,48.04
2023-03-22T08:31:03.369Z,48.06
2023-03-22T08:33:30.475Z,48.04
2023-03-22T08:35:57.592Z,48.46
2023-03-22T08:38:24.703Z,48.98
2023-03-22T08:40:51.913Z,48.86
2023-03-22T08:43:18.980Z,48.58
2023-03-22T08:45:47.599Z,48.31
2023-03-22T08:48:14.725Z,48.13
2023-03-22T08:50:41.953Z,48.20
2023-03-22T08:53:09.094Z,48.30
2023-03-22T08:55:37.574Z,48.19
2023-03-22T08:58:04.899Z,47.95
2023-03-22T09:00:45.949Z,48.21
2023-03-22T09:03:16.216Z,47.98
2023-03-22T09:05:43.515Z,48.06
2023-03-22T09:08:18.413Z,48.32
2023-03-22T09:10:47.937Z,48.24
2023-03-22T09:13:16.923Z,47.97
2023-03-22T09:15:44.963Z,48.02
2023-03-22T09:18:12.266Z,48.15
2023-03-22T09:20:39.674Z,47.80
2023-03-22T09:23:07.092Z,47.66
2023-03-22T09:25:34.247Z,47.82
2023-03-22T09:28:01.326Z,47.54
2023-03-22T09:30:28.647Z,47.72
2023-03-22T09:38:32.599Z,47.69
2023-03-22T09:41:02.752Z,47.78
2023-03-22T09:43:31.535Z,47.65
2023-03-22T09:46:00.318Z,47.95
2023-03-22T09:48:27.497Z,47.81
2023-03-22T09:50:54.651Z,47.67
2023-03-22T09:53:21.713Z,47.73
2023-03-22T09:55:48.794Z,47.86
2023-03-22T09:58:15.984Z,47.69
2023-03-22T10:00:43.151Z,47.67
2023-03-22T10:03:10.788Z,47.64
2023-03-22T10:05:37.866Z,47.38
2023-03-22T10:08:04.999Z,47.31
2023-03-22T10:10:32.143Z,47.53
2023-03-22T10:13:00.039Z,46.98
2023-03-22T10:15:27.130Z,47.33
2023-03-22T10:17:54.201Z,47.49
2023-03-22T10:20:21.276Z,47.72
2023-03-22T10:25:35.437Z,47.30
2023-03-22T10:28:02.632Z,47.16
2023-03-22T10:30:29.718Z,47.33
2023-03-22T10:32:58.261Z,47.26
2023-03-22T10:35:25.825Z,47.15
2023-03-22T10:37:53.020Z,47.08
2023-03-22T10:40:20.194Z,47.47
2023-03-22T10:42:47.270Z,47.50
2023-03-22T10:45:14.406Z,47.79
2023-03-22T10:47:42.389Z,47.44
2023-03-22T10:50:09.477Z,47.48
2023-03-22T10:52:37.023Z,47.50
2023-03-22T10:55:04.714Z,47.53
2023-03-22T10:57:31.999Z,47.63
2023-03-22T10:59:59.097Z,47.98
2023-03-22T11:02:27.658Z,47.50
2023-03-22T11:04:54.858Z,47.25
2023-03-22T11:07:21.936Z,47.33
2023-03-22T11:09:49.732Z,47.55
2023-03-22T11:12:16.896Z,47.50
2023-03-22T11:14:43.984Z,47.41
2023-03-22T11:17:12.585Z,47.38
2023-03-22T11:19:39.679Z,46.97
2023-03-22T11:22:06.741Z,47.29
2023-03-22T11:24:33.805Z,47.08
2023-03-22T11:27:01.078Z,47.20
2023-03-22T11:29:28.162Z,47.27
2023-03-22T11:31:56.201Z,47.23
2023-03-22T11:34:23.436Z,47.13
2023-03-22T11:36:56.895Z,47.11
2023-03-22T11:39:24.921Z,47.04
2023-03-22T11:41:52.041Z,47.36
2023-03-22T11:44:19.173Z,47.25
2023-03-22T11:46:46.247Z,47.45
2023-03-22T11:49:14.565Z,47.07
2023-03-22T11:51:41.900Z,47.06
2023-03-22T11:54:09.051Z,47.00
2023-03-22T11:56:36.245Z,47.36
2023-03-22T11:59:04.165Z,47.06
2023-03-22T12:01:32.178Z,47.00
2023-03-22T12:03:59.273Z,46.89
2023-03-22T12:06:26.425Z,46.82
2023-03-22T12:08:53.577Z,47.02
2023-03-22T12:11:20.647Z,46.84
2023-03-22T12:16:34.895Z,47.18
2023-03-22T12:19:02.047Z,47.07
2023-03-22T12:21:29.278Z,47.07
2023-03-22T12:23:56.352Z,46.52
2023-03-22T12:26:23.405Z,46.84
2023-03-22T12:28:50.527Z,46.77
2023-03-22T12:31:17.761Z,46.44
2023-03-22T12:33:44.861Z,46.74
2023-03-22T12:36:12.021Z,47.22
2023-03-22T12:38:39.119Z,47.33
2023-03-22T12:41:06.323Z,47.24
2023-03-22T12:43:33.428Z,47.34
2023-03-22T12:46:00.517Z,47.18
2023-03-22T12:48:27.728Z,47.08
2023-03-22T12:50:54.947Z,46.67
2023-03-22T12:53:22.005Z,47.00
2023-03-22T12:55:49.159Z,46.67
2023-03-22T12:58:16.252Z,46.82
2023-03-22T13:00:43.670Z,46.81
2023-03-22T13:03:11.021Z,46.73
2023-03-22T13:05:38.332Z,46.43
2023-03-22T13:08:05.811Z,46.53
2023-03-22T13:10:34.000Z,46.54
2023-03-22T13:13:01.082Z,46.74
2023-03-22T13:15:34.833Z,46.89
2023-03-22T13:18:07.888Z,46.79
2023-03-22T13:20:35.081Z,46.62
2023-03-22T13:25:49.238Z,46.71
2023-03-22T13:28:16.322Z,46.38
2023-03-22T13:30:43.414Z,46.51
2023-03-22T13:33:10.581Z,46.51
2023-03-22T13:35:37.847Z,46.62
2023-03-22T13:38:05.053Z,46.33
2023-03-22T13:40:32.113Z,46.43
2023-03-22T13:45:46.187Z,46.23
2023-03-22T13:48:13.389Z,46.73
2023-03-22T13:50:40.888Z,46.61
2023-03-22T13:53:08.792Z,46.65
2023-03-22T13:55:41.281Z,46.31
2023-03-22T13:58:08.539Z,46.58
2023-03-22T14:00:36.126Z,46.77
2023-03-22T14:03:03.592Z,46.73
2023-03-22T14:05:30.940Z,46.90
2023-03-22T14:07:58.168Z,46.81
2023-03-22T14:10:25.638Z,47.11
2023-03-22T14:12:52.709Z,46.87
2023-03-22T14:15:19.784Z,47.32
2023-03-22T14:17:48.217Z,47.09
2023-03-22T14:20:17.193Z,47.27
2023-03-22T14:52:04.367Z,47.19
2023-03-22T14:54:31.637Z,47.12
2023-03-22T14:59:46.878Z,47.15
2023-03-22T15:02:14.052Z,47.38
2023-03-22T15:04:41.536Z,47.46
2023-03-22T15:07:08.744Z,47.41
2023-03-22T15:09:36.231Z,47.16
2023-03-22T15:17:39.060Z,47.22
2023-03-22T15:25:41.794Z,47.31
2023-03-22T15:36:33.177Z,47.70
2023-03-22T15:39:00.352Z,47.92
2023-03-22T15:41:27.541Z,48.04
2023-03-22T15:43:54.720Z,48.06
2023-03-22T15:46:22.037Z,48.11
2023-03-22T15:48:53.615Z,48.16
2023-03-22T15:54:09.447Z,48.06
2023-03-22T15:56:40.329Z,47.79
2023-03-22T16:01:54.837Z,47.87
2023-03-22T16:07:11.403Z,48.69
2023-03-22T16:12:26.142Z,48.33
2023-03-22T16:14:53.412Z,48.71
2023-03-22T16:22:55.636Z,48.10
2023-03-22T16:33:44.140Z,48.55
2023-03-22T16:44:32.640Z,48.67
2023-03-22T16:49:46.944Z,48.67
2023-03-22T16:57:48.418Z,48.50
2023-03-22T17:05:52.450Z,48.15
2023-03-22T17:16:41.142Z,48.84
2023-03-22T17:19:08.424Z,48.72
2023-03-22T17:21:35.688Z,48.81
2023-03-22T17:26:50.233Z,48.95
2023-03-22T17:29:17.537Z,48.70
2023-03-22T17:31:50.358Z,48.55
2023-03-22T17:34:25.259Z,48.62
2023-03-22T17:36:52.448Z,49.10
2023-03-22T17:39:36.148Z,49.18
2023-03-22T17:42:06.809Z,49.23
2023-03-22T17:44:34.358Z,49.46
2023-03-22T17:58:05.055Z,48.49
2023-03-22T18:02:42.005Z,48.23
2023-03-22T18:08:21.993Z,48.26
2023-03-22T18:10:43.933Z,48.12
2023-03-22T18:15:58.411Z,48.20
2023-03-22T18:18:25.594Z,48.42
2023-03-22T18:20:57.665Z,49.02
2023-03-22T18:31:47.837Z,48.63
2023-03-22T18:34:15.055Z,48.29
2023-03-22T18:36:42.317Z,48.35
2023-03-22T18:39:56.286Z,48.60
2023-03-22T18:42:12.437Z,47.95
2023-03-22T18:44:46.092Z,48.26
2023-03-22T18:47:16.765Z,48.09
2023-03-22T18:49:44.376Z,48.11
2023-03-22T18:52:39.944Z,48.22
2023-03-22T18:55:14.980Z,48.07
2023-03-22T18:57:46.040Z,47.97
2023-03-22T19:00:13.272Z,48.02
2023-03-22T19:02:40.618Z,48.18
2023-03-22T19:05:07.959Z,47.70
2023-03-22T19:17:52.507Z,48.01
2023-03-22T19:20:19.687Z,47.86
2023-03-22T19:22:47.256Z,47.86
2023-03-22T19:25:14.456Z,48.37
2023-03-22T19:30:29.215Z,48.44
2023-03-22T19:35:24.296Z,47.87
2023-03-22T19:41:27.367Z,47.76
2023-03-22T19:43:25.739Z,48.01
2023-03-22T19:56:46.488Z,48.20
2023-03-22T19:59:13.715Z,48.47
2023-03-22T20:01:40.950Z,47.62
2023-03-22T20:09:42.779Z,47.51
2023-03-22T20:12:10.838Z,47.62
2023-03-22T20:17:26.637Z,48.07
2023-03-22T20:19:53.912Z,48.48
2023-03-22T20:27:58.124Z,47.76
2023-03-22T20:30:27.287Z,47.97
2023-03-22T20:32:54.588Z,47.75
2023-03-22T20:40:56.419Z,47.74
2023-03-22T20:53:52.236Z,47.94
2023-03-22T20:56:19.545Z,47.61
2023-03-22T20:58:46.708Z,47.74
2023-03-22T21:09:39.648Z,47.99
2023-03-22T21:14:54.239Z,48.06
2023-03-22T21:20:08.518Z,47.63
2023-03-22T21:28:10.125Z,48.02
2023-03-22T21:30:37.308Z,48.09
2023-03-22T21:33:04.545Z,47.77
2023-03-22T21:35:31.724Z,47.71
2023-03-22T21:38:03.557Z,47.71
2023-03-22T21:49:01.814Z,47.34
2023-03-22T21:51:29.237Z,47.56
2023-03-22T21:53:56.701Z,47.78
2023-03-22T21:56:23.932Z,47.86
2023-03-22T22:01:18.464Z,48.16
2023-03-22T22:03:46.557Z,47.85
2023-03-22T22:06:13.818Z,47.73
2023-03-22T22:16:24.694Z,48.21
2023-03-22T22:18:52.484Z,47.53
2023-03-22T22:29:45.294Z,47.98
2023-03-22T22:34:59.546Z,48.12
2023-03-22T22:37:26.897Z,47.93
2023-03-22T22:39:54.085Z,47.91
2023-03-22T22:47:55.627Z,48.17
2023-03-22T22:53:09.909Z,47.83
2023-03-22T22:55:37.383Z,47.55
2023-03-22T22:58:04.736Z,47.59
2023-03-22T23:03:19.227Z,47.97
2023-03-22T23:05:46.471Z,47.99
2023-03-22T23:08:14.104Z,47.86
2023-03-22T23:10:46.974Z,47.76
2023-03-22T23:15:41.403Z,47.66
2023-03-22T23:18:13.370Z,48.01
2023-03-22T23:20:40.617Z,47.99
2023-03-22T23:23:07.841Z,47.82
2023-03-22T23:25:35.506Z,47.99
2023-03-22T23:28:02.660Z,47.86
2023-03-22T23:33:16.965Z,47.51
2023-03-22T23:35:44.598Z,47.45
2023-03-22T23:38:12.071Z,47.54
2023-03-22T23:51:47.917Z,47.73
2023-03-22T23:54:15.120Z,47.92
2023-03-22T23:56:42.286Z,47.97
2023-03-22T23:59:09.455Z,47.42
